sensor_id;sensor_type;location;lat;lon;timestamp;P1;durP1;ratioP1;P2;durP2;ratioP2
21034;SDS011;10676;50.848;3.272;2022-12-07T00:00:27;26.03;;;19.33;;
21034;SDS011;10676;50.848;3.272;2022-12-07T00:02:53;28.87;;;19.83;;
21034;SDS011;10676;50.848;3.272;2022-12-07T00:05:18;33.17;;;19.90;;
21034;SDS011;10676;50.848;3.272;2022-12-07T00:07:44;31.50;;;20.07;;
21034;SDS011;10676;50.848;3.272;2022-12-07T00:10:10;29.30;;;20.83;;
21034;SDS011;10676;50.848;3.272;2022-12-07T00:12:35;31.67;;;19.53;;
21034;SDS011;10676;50.848;3.272;2022-12-07T00:15:01;29.23;;;19.13;;
21034;SDS011;10676;50.848;3.272;2022-12-07T00:17:27;26.87;;;19.43;;
21034;SDS011;10676;50.848;3.272;2022-12-07T00:19:52;28.03;;;18.30;;
21034;SDS011;10676;50.848;3.272;2022-12-07T00:22:18;22.63;;;17.27;;
21034;SDS011;10676;50.848;3.272;2022-12-07T00:24:43;24.33;;;18.50;;
21034;SDS011;10676;50.848;3.272;2022-12-07T00:27:09;21.77;;;17.30;;
21034;SDS011;10676;50.848;3.272;2022-12-07T00:29:35;23.70;;;16.83;;
21034;SDS011;10676;50.848;3.272;2022-12-07T00:32:02;25.87;;;16.40;;
21034;SDS011;10676;50.848;3.272;2022-12-07T00:34:28;26.33;;;17.00;;
21034;SDS011;10676;50.848;3.272;2022-12-07T00:36:53;23.97;;;15.90;;
21034;SDS011;10676;50.848;3.272;2022-12-07T00:39:19;23.13;;;16.60;;
21034;SDS011;10676;50.848;3.272;2022-12-07T00:41:45;25.73;;;17.30;;
21034;SDS011;10676;50.848;3.272;2022-12-07T00:44:10;23.87;;;16.80;;
21034;SDS011;10676;50.848;3.272;2022-12-07T00:46:36;27.00;;;16.87;;
21034;SDS011;10676;50.848;3.272;2022-12-07T00:49:02;22.27;;;15.90;;
21034;SDS011;10676;50.848;3.272;2022-12-07T00:51:27;22.70;;;17.43;;
21034;SDS011;10676;50.848;3.272;2022-12-07T00:53:53;25.67;;;17.10;;
21034;SDS011;10676;50.848;3.272;2022-12-07T00:56:26;18.07;;;16.10;;
21034;SDS011;10676;50.848;3.272;2022-12-07T00:58:57;21.20;;;15.87;;
21034;SDS011;10676;50.848;3.272;2022-12-07T01:01:26;23.70;;;15.63;;
21034;SDS011;10676;50.848;3.272;2022-12-07T01:03:53;18.43;;;15.50;;
21034;SDS011;10676;50.848;3.272;2022-12-07T01:06:20;19.90;;;15.63;;
21034;SDS011;10676;50.848;3.272;2022-12-07T01:08:47;19.20;;;14.57;;
21034;SDS011;10676;50.848;3.272;2022-12-07T01:11:14;20.50;;;15.47;;
21034;SDS011;10676;50.848;3.272;2022-12-07T01:13:42;20.47;;;14.73;;
21034;SDS011;10676;50.848;3.272;2022-12-07T01:16:09;16.73;;;14.63;;
21034;SDS011;10676;50.848;3.272;2022-12-07T01:18:37;22.67;;;15.27;;
21034;SDS011;10676;50.848;3.272;2022-12-07T01:21:07;22.23;;;15.10;;
21034;SDS011;10676;50.848;3.272;2022-12-07T01:23:39;16.60;;;14.27;;
21034;SDS011;10676;50.848;3.272;2022-12-07T01:26:06;20.60;;;14.23;;
21034;SDS011;10676;50.848;3.272;2022-12-07T01:28:34;18.47;;;14.40;;
21034;SDS011;10676;50.848;3.272;2022-12-07T01:31:01;18.30;;;14.33;;
21034;SDS011;10676;50.848;3.272;2022-12-07T01:33:29;21.53;;;14.33;;
21034;SDS011;10676;50.848;3.272;2022-12-07T01:36:35;18.37;;;15.47;;
21034;SDS011;10676;50.848;3.272;2022-12-07T01:38:56;19.80;;;14.80;;
21034;SDS011;10676;50.848;3.272;2022-12-07T01:41:24;22.90;;;14.70;;
21034;SDS011;10676;50.848;3.272;2022-12-07T01:46:42;22.67;;;14.37;;
21034;SDS011;10676;50.848;3.272;2022-12-07T01:49:12;19.70;;;13.57;;
21034;SDS011;10676;50.848;3.272;2022-12-07T01:51:51;15.18;;;13.57;;
21034;SDS011;10676;50.848;3.272;2022-12-07T01:54:22;21.13;;;13.50;;
21034;SDS011;10676;50.848;3.272;2022-12-07T01:56:50;16.60;;;12.87;;
21034;SDS011;10676;50.848;3.272;2022-12-07T01:59:18;22.63;;;13.20;;
21034;SDS011;10676;50.848;3.272;2022-12-07T02:01:46;17.63;;;13.23;;
21034;SDS011;10676;50.848;3.272;2022-12-07T02:04:12;22.08;;;12.07;;
21034;SDS011;10676;50.848;3.272;2022-12-07T02:06:37;21.40;;;12.75;;
21034;SDS011;10676;50.848;3.272;2022-12-07T02:09:04;29.38;;;13.73;;
21034;SDS011;10676;50.848;3.272;2022-12-07T02:11:30;21.23;;;14.27;;
21034;SDS011;10676;50.848;3.272;2022-12-07T02:13:56;18.13;;;13.73;;
21034;SDS011;10676;50.848;3.272;2022-12-07T02:24:54;17.03;;;12.77;;
21034;SDS011;10676;50.848;3.272;2022-12-07T02:30:16;14.33;;;12.63;;
21034;SDS011;10676;50.848;3.272;2022-12-07T02:35:38;18.00;;;12.50;;
21034;SDS011;10676;50.848;3.272;2022-12-07T02:38:11;17.63;;;12.80;;
21034;SDS011;10676;50.848;3.272;2022-12-07T02:40:46;21.90;;;13.93;;
21034;SDS011;10676;50.848;3.272;2022-12-07T02:45:53;20.87;;;13.03;;
21034;SDS011;10676;50.848;3.272;2022-12-07T02:48:23;17.43;;;13.73;;
21034;SDS011;10676;50.848;3.272;2022-12-07T02:50:51;22.33;;;12.63;;
21034;SDS011;10676;50.848;3.272;2022-12-07T03:12:31;18.23;;;13.07;;
21034;SDS011;10676;50.848;3.272;2022-12-07T03:15:07;19.17;;;13.50;;
21034;SDS011;10676;50.848;3.272;2022-12-07T03:17:39;23.87;;;12.73;;
21034;SDS011;10676;50.848;3.272;2022-12-07T03:20:09;16.50;;;12.10;;
21034;SDS011;10676;50.848;3.272;2022-12-07T03:22:38;14.87;;;12.77;;
21034;SDS011;10676;50.848;3.272;2022-12-07T03:25:08;23.20;;;13.37;;
21034;SDS011;10676;50.848;3.272;2022-12-07T03:32:43;20.47;;;12.60;;
21034;SDS011;10676;50.848;3.272;2022-12-07T03:35:31;18.03;;;12.97;;
21034;SDS011;10676;50.848;3.272;2022-12-07T03:38:22;20.77;;;12.73;;
21034;SDS011;10676;50.848;3.272;2022-12-07T03:43:36;15.67;;;12.00;;
21034;SDS011;10676;50.848;3.272;2022-12-07T03:46:09;16.20;;;11.57;;
21034;SDS011;10676;50.848;3.272;2022-12-07T03:54:12;17.03;;;12.57;;
21034;SDS011;10676;50.848;3.272;2022-12-07T03:56:46;19.10;;;12.03;;
21034;SDS011;10676;50.848;3.272;2022-12-07T03:59:13;17.13;;;13.13;;
21034;SDS011;10676;50.848;3.272;2022-12-07T04:01:51;18.83;;;11.90;;
21034;SDS011;10676;50.848;3.272;2022-12-07T04:04:19;20.00;;;13.03;;
21034;SDS011;10676;50.848;3.272;2022-12-07T04:06:45;18.07;;;12.63;;
21034;SDS011;10676;50.848;3.272;2022-12-07T04:09:10;18.20;;;11.83;;
21034;SDS011;10676;50.848;3.272;2022-12-07T04:11:36;18.53;;;12.30;;
21034;SDS011;10676;50.848;3.272;2022-12-07T04:14:02;15.83;;;11.10;;
21034;SDS011;10676;50.848;3.272;2022-12-07T04:16:47;17.40;;;12.50;;
21034;SDS011;10676;50.848;3.272;2022-12-07T04:19:21;20.53;;;12.87;;
21034;SDS011;10676;50.848;3.272;2022-12-07T04:21:49;18.60;;;12.03;;
21034;SDS011;10676;50.848;3.272;2022-12-07T04:24:14;17.60;;;13.33;;
21034;SDS011;10676;50.848;3.272;2022-12-07T04:26:41;21.77;;;13.20;;
21034;SDS011;10676;50.848;3.272;2022-12-07T04:29:07;18.30;;;11.83;;
21034;SDS011;10676;50.848;3.272;2022-12-07T04:31:34;15.20;;;12.93;;
21034;SDS011;10676;50.848;3.272;2022-12-07T04:34:00;17.60;;;13.53;;
21034;SDS011;10676;50.848;3.272;2022-12-07T04:36:26;21.97;;;12.37;;
21034;SDS011;10676;50.848;3.272;2022-12-07T04:38:55;23.03;;;13.60;;
21034;SDS011;10676;50.848;3.272;2022-12-07T04:41:21;25.00;;;13.43;;
21034;SDS011;10676;50.848;3.272;2022-12-07T04:43:52;18.77;;;13.23;;
21034;SDS011;10676;50.848;3.272;2022-12-07T04:46:22;19.90;;;14.07;;
21034;SDS011;10676;50.848;3.272;2022-12-07T04:48:49;20.93;;;14.50;;
21034;SDS011;10676;50.848;3.272;2022-12-07T04:51:15;22.13;;;14.37;;
21034;SDS011;10676;50.848;3.272;2022-12-07T04:53:47;17.90;;;14.63;;
21034;SDS011;10676;50.848;3.272;2022-12-07T04:56:13;18.40;;;14.40;;
21034;SDS011;10676;50.848;3.272;2022-12-07T04:58:40;21.13;;;15.33;;
21034;SDS011;10676;50.848;3.272;2022-12-07T05:01:06;29.00;;;15.13;;
21034;SDS011;10676;50.848;3.272;2022-12-07T05:03:32;24.53;;;15.13;;
21034;SDS011;10676;50.848;3.272;2022-12-07T05:05:57;22.80;;;15.47;;
21034;SDS011;10676;50.848;3.272;2022-12-07T05:08:23;22.43;;;15.60;;
21034;SDS011;10676;50.848;3.272;2022-12-07T05:10:49;31.00;;;16.10;;
21034;SDS011;10676;50.848;3.272;2022-12-07T05:13:15;27.90;;;16.03;;
21034;SDS011;10676;50.848;3.272;2022-12-07T05:15:40;28.40;;;15.50;;
21034;SDS011;10676;50.848;3.272;2022-12-07T05:18:08;24.20;;;15.77;;
21034;SDS011;10676;50.848;3.272;2022-12-07T05:20:37;24.13;;;15.23;;
21034;SDS011;10676;50.848;3.272;2022-12-07T05:23:06;25.83;;;15.67;;
21034;SDS011;10676;50.848;3.272;2022-12-07T05:25:32;26.07;;;16.77;;
21034;SDS011;10676;50.848;3.272;2022-12-07T05:27:58;36.33;;;15.63;;
21034;SDS011;10676;50.848;3.272;2022-12-07T05:30:24;23.67;;;15.70;;
21034;SDS011;10676;50.848;3.272;2022-12-07T05:32:50;21.13;;;14.43;;
21034;SDS011;10676;50.848;3.272;2022-12-07T05:35:16;23.50;;;15.90;;
21034;SDS011;10676;50.848;3.272;2022-12-07T05:37:42;24.07;;;15.57;;
21034;SDS011;10676;50.848;3.272;2022-12-07T05:40:09;27.40;;;16.67;;
21034;SDS011;10676;50.848;3.272;2022-12-07T05:42:35;21.03;;;16.67;;
21034;SDS011;10676;50.848;3.272;2022-12-07T05:45:01;22.77;;;17.03;;
21034;SDS011;10676;50.848;3.272;2022-12-07T05:47:26;23.70;;;15.90;;
21034;SDS011;10676;50.848;3.272;2022-12-07T05:49:52;27.33;;;16.93;;
21034;SDS011;10676;50.848;3.272;2022-12-07T05:52:18;26.67;;;17.63;;
21034;SDS011;10676;50.848;3.272;2022-12-07T05:54:43;27.13;;;18.33;;
21034;SDS011;10676;50.848;3.272;2022-12-07T05:57:09;24.50;;;18.60;;
21034;SDS011;10676;50.848;3.272;2022-12-07T05:59:35;32.47;;;19.00;;
21034;SDS011;10676;50.848;3.272;2022-12-07T06:02:05;28.87;;;18.53;;
21034;SDS011;10676;50.848;3.272;2022-12-07T06:04:33;32.83;;;19.57;;
21034;SDS011;10676;50.848;3.272;2022-12-07T06:07:03;29.40;;;18.87;;
21034;SDS011;10676;50.848;3.272;2022-12-07T06:09:30;26.10;;;17.93;;
21034;SDS011;10676;50.848;3.272;2022-12-07T06:11:56;29.53;;;18.10;;
21034;SDS011;10676;50.848;3.272;2022-12-07T06:14:42;31.80;;;17.63;;
21034;SDS011;10676;50.848;3.272;2022-12-07T06:17:09;31.37;;;17.27;;
21034;SDS011;10676;50.848;3.272;2022-12-07T06:19:35;24.93;;;17.40;;
21034;SDS011;10676;50.848;3.272;2022-12-07T06:22:01;31.33;;;17.47;;
21034;SDS011;10676;50.848;3.272;2022-12-07T06:24:29;32.47;;;19.03;;
21034;SDS011;10676;50.848;3.272;2022-12-07T06:26:55;29.20;;;15.97;;
21034;SDS011;10676;50.848;3.272;2022-12-07T06:29:21;30.27;;;16.63;;
21034;SDS011;10676;50.848;3.272;2022-12-07T06:31:47;31.20;;;15.87;;
21034;SDS011;10676;50.848;3.272;2022-12-07T06:34:14;31.37;;;16.77;;
21034;SDS011;10676;50.848;3.272;2022-12-07T06:36:41;28.33;;;15.23;;
21034;SDS011;10676;50.848;3.272;2022-12-07T06:39:07;22.17;;;15.23;;
21034;SDS011;10676;50.848;3.272;2022-12-07T06:41:34;24.87;;;14.27;;
21034;SDS011;10676;50.848;3.272;2022-12-07T06:44:03;25.80;;;15.57;;
21034;SDS011;10676;50.848;3.272;2022-12-07T06:46:30;21.87;;;15.33;;
21034;SDS011;10676;50.848;3.272;2022-12-07T06:48:56;22.47;;;15.13;;
21034;SDS011;10676;50.848;3.272;2022-12-07T06:51:21;26.20;;;15.00;;
21034;SDS011;10676;50.848;3.272;2022-12-07T06:53:47;26.07;;;15.00;;
21034;SDS011;10676;50.848;3.272;2022-12-07T06:56:13;29.87;;;15.40;;
21034;SDS011;10676;50.848;3.272;2022-12-07T06:58:39;27.13;;;15.23;;
21034;SDS011;10676;50.848;3.272;2022-12-07T07:01:09;33.27;;;16.63;;
21034;SDS011;10676;50.848;3.272;2022-12-07T07:03:36;27.20;;;16.50;;
21034;SDS011;10676;50.848;3.272;2022-12-07T07:06:01;27.57;;;17.30;;
21034;SDS011;10676;50.848;3.272;2022-12-07T07:08:27;34.83;;;18.83;;
21034;SDS011;10676;50.848;3.272;2022-12-07T07:10:53;26.07;;;18.07;;
21034;SDS011;10676;50.848;3.272;2022-12-07T07:13:18;24.60;;;17.07;;
21034;SDS011;10676;50.848;3.272;2022-12-07T07:15:47;29.03;;;18.70;;
21034;SDS011;10676;50.848;3.272;2022-12-07T07:18:13;33.97;;;18.07;;
21034;SDS011;10676;50.848;3.272;2022-12-07T07:20:39;20.73;;;17.23;;
21034;SDS011;10676;50.848;3.272;2022-12-07T07:23:05;28.93;;;17.47;;
21034;SDS011;10676;50.848;3.272;2022-12-07T07:25:31;25.33;;;17.17;;
21034;SDS011;10676;50.848;3.272;2022-12-07T07:27:57;24.97;;;18.20;;
21034;SDS011;10676;50.848;3.272;2022-12-07T07:30:23;27.80;;;21.03;;
21034;SDS011;10676;50.848;3.272;2022-12-07T07:32:49;25.50;;;17.40;;
21034;SDS011;10676;50.848;3.272;2022-12-07T07:35:14;29.67;;;17.83;;
21034;SDS011;10676;50.848;3.272;2022-12-07T07:37:40;29.23;;;18.03;;
21034;SDS011;10676;50.848;3.272;2022-12-07T07:40:07;19.90;;;16.87;;
21034;SDS011;10676;50.848;3.272;2022-12-07T07:42:33;29.20;;;16.87;;
21034;SDS011;10676;50.848;3.272;2022-12-07T07:44:59;23.67;;;17.27;;
21034;SDS011;10676;50.848;3.272;2022-12-07T07:47:25;24.83;;;17.90;;
21034;SDS011;10676;50.848;3.272;2022-12-07T07:49:50;24.37;;;16.27;;
21034;SDS011;10676;50.848;3.272;2022-12-07T07:52:16;25.07;;;16.77;;
21034;SDS011;10676;50.848;3.272;2022-12-07T07:54:41;22.27;;;15.87;;
21034;SDS011;10676;50.848;3.272;2022-12-07T07:57:07;23.80;;;16.40;;
21034;SDS011;10676;50.848;3.272;2022-12-07T07:59:33;25.03;;;17.03;;
21034;SDS011;10676;50.848;3.272;2022-12-07T08:01:58;25.77;;;15.50;;
21034;SDS011;10676;50.848;3.272;2022-12-07T08:04:24;24.13;;;15.87;;
21034;SDS011;10676;50.848;3.272;2022-12-07T08:06:50;23.50;;;15.67;;
21034;SDS011;10676;50.848;3.272;2022-12-07T08:09:16;22.27;;;15.60;;
21034;SDS011;10676;50.848;3.272;2022-12-07T08:11:42;27.57;;;15.83;;
21034;SDS011;10676;50.848;3.272;2022-12-07T08:14:09;27.37;;;16.67;;
21034;SDS011;10676;50.848;3.272;2022-12-07T08:16:35;28.80;;;16.60;;
21034;SDS011;10676;50.848;3.272;2022-12-07T08:19:04;26.20;;;18.40;;
21034;SDS011;10676;50.848;3.272;2022-12-07T08:21:30;26.10;;;17.77;;
21034;SDS011;10676;50.848;3.272;2022-12-07T08:23:56;27.77;;;18.03;;
21034;SDS011;10676;50.848;3.272;2022-12-07T08:26:22;31.17;;;18.90;;
21034;SDS011;10676;50.848;3.272;2022-12-07T08:28:47;27.07;;;18.47;;
21034;SDS011;10676;50.848;3.272;2022-12-07T08:31:14;31.63;;;17.00;;
21034;SDS011;10676;50.848;3.272;2022-12-07T08:33:41;20.53;;;15.53;;
21034;SDS011;10676;50.848;3.272;2022-12-07T08:36:08;24.83;;;16.63;;
21034;SDS011;10676;50.848;3.272;2022-12-07T08:38:36;27.10;;;15.48;;
21034;SDS011;10676;50.848;3.272;2022-12-07T08:41:03;31.48;;;16.35;;
21034;SDS011;10676;50.848;3.272;2022-12-07T08:43:30;21.90;;;16.38;;
21034;SDS011;10676;50.848;3.272;2022-12-07T08:51:19;24.47;;;15.83;;
21034;SDS011;10676;50.848;3.272;2022-12-07T08:53:46;22.73;;;14.43;;
21034;SDS011;10676;50.848;3.272;2022-12-07T08:56:13;18.00;;;13.82;;
21034;SDS011;10676;50.848;3.272;2022-12-07T08:58:38;17.63;;;13.10;;
21034;SDS011;10676;50.848;3.272;2022-12-07T09:01:05;17.45;;;13.77;;
21034;SDS011;10676;50.848;3.272;2022-12-07T09:03:31;16.25;;;14.40;;
21034;SDS011;10676;50.848;3.272;2022-12-07T09:05:57;16.85;;;13.73;;
21034;SDS011;10676;50.848;3.272;2022-12-07T09:08:26;21.42;;;15.27;;
21034;SDS011;10676;50.848;3.272;2022-12-07T09:10:56;18.08;;;15.52;;
21034;SDS011;10676;50.848;3.272;2022-12-07T09:13:21;20.25;;;14.20;;
21034;SDS011;10676;50.848;3.272;2022-12-07T09:15:47;30.05;;;21.08;;
21034;SDS011;10676;50.848;3.272;2022-12-07T09:18:13;18.73;;;16.58;;
21034;SDS011;10676;50.848;3.272;2022-12-07T09:20:39;22.77;;;16.05;;
21034;SDS011;10676;50.848;3.272;2022-12-07T09:23:05;25.50;;;15.02;;
21034;SDS011;10676;50.848;3.272;2022-12-07T09:25:31;24.65;;;16.05;;
21034;SDS011;10676;50.848;3.272;2022-12-07T09:27:57;28.40;;;18.60;;
21034;SDS011;10676;50.848;3.272;2022-12-07T09:30:24;20.30;;;18.23;;
21034;SDS011;10676;50.848;3.272;2022-12-07T09:32:52;21.30;;;17.13;;
21034;SDS011;10676;50.848;3.272;2022-12-07T09:35:18;24.63;;;17.27;;
21034;SDS011;10676;50.848;3.272;2022-12-07T09:37:44;20.30;;;17.42;;
21034;SDS011;10676;50.848;3.272;2022-12-07T09:40:10;22.60;;;16.80;;
21034;SDS011;10676;50.848;3.272;2022-12-07T09:42:41;24.42;;;16.50;;
21034;SDS011;10676;50.848;3.272;2022-12-07T09:45:14;27.02;;;17.55;;
21034;SDS011;10676;50.848;3.272;2022-12-07T09:47:45;25.55;;;16.13;;
21034;SDS011;10676;50.848;3.272;2022-12-07T09:50:19;17.83;;;15.93;;
21034;SDS011;10676;50.848;3.272;2022-12-07T09:52:47;22.52;;;15.00;;
21034;SDS011;10676;50.848;3.272;2022-12-07T09:55:15;23.73;;;15.93;;
21034;SDS011;10676;50.848;3.272;2022-12-07T09:57:46;22.92;;;15.88;;
21034;SDS011;10676;50.848;3.272;2022-12-07T10:00:15;20.50;;;14.68;;
21034;SDS011;10676;50.848;3.272;2022-12-07T10:02:43;20.35;;;15.40;;
21034;SDS011;10676;50.848;3.272;2022-12-07T10:05:15;23.00;;;13.75;;
21034;SDS011;10676;50.848;3.272;2022-12-07T10:07:45;17.65;;;12.35;;
21034;SDS011;10676;50.848;3.272;2022-12-07T10:10:15;14.05;;;11.20;;
21034;SDS011;10676;50.848;3.272;2022-12-07T10:12:55;22.30;;;13.00;;
21034;SDS011;10676;50.848;3.272;2022-12-07T10:15:36;14.32;;;10.88;;
21034;SDS011;10676;50.848;3.272;2022-12-07T10:23:37;17.88;;;10.73;;
21034;SDS011;10676;50.848;3.272;2022-12-07T10:26:28;12.70;;;10.38;;
21034;SDS011;10676;50.848;3.272;2022-12-07T10:28:59;11.55;;;9.88;;
21034;SDS011;10676;50.848;3.272;2022-12-07T10:31:46;10.65;;;9.15;;
21034;SDS011;10676;50.848;3.272;2022-12-07T10:34:41;11.32;;;8.23;;
21034;SDS011;10676;50.848;3.272;2022-12-07T10:39:49;13.18;;;8.55;;
21034;SDS011;10676;50.848;3.272;2022-12-07T10:42:24;14.45;;;8.70;;
21034;SDS011;10676;50.848;3.272;2022-12-07T10:45:08;16.85;;;8.27;;
21034;SDS011;10676;50.848;3.272;2022-12-07T10:50:31;15.23;;;8.02;;
21034;SDS011;10676;50.848;3.272;2022-12-07T11:04:57;12.93;;;7.53;;
21034;SDS011;10676;50.848;3.272;2022-12-07T11:21:09;8.07;;;4.45;;
21034;SDS011;10676;50.848;3.272;2022-12-07T11:24:08;6.53;;;4.30;;
21034;SDS011;10676;50.848;3.272;2022-12-07T11:26:54;7.00;;;5.03;;
21034;SDS011;10676;50.848;3.272;2022-12-07T11:37:45;6.20;;;4.78;;
21034;SDS011;10676;50.848;3.272;2022-12-07T11:43:09;7.03;;;5.32;;
21034;SDS011;10676;50.848;3.272;2022-12-07T11:46:10;10.50;;;5.53;;
21034;SDS011;10676;50.848;3.272;2022-12-07T11:48:58;7.85;;;5.60;;
21034;SDS011;10676;50.848;3.272;2022-12-07T11:51:35;7.03;;;5.30;;
21034;SDS011;10676;50.848;3.272;2022-12-07T11:54:14;9.63;;;5.32;;
21034;SDS011;10676;50.848;3.272;2022-12-07T11:56:45;8.25;;;5.40;;
21034;SDS011;10676;50.848;3.272;2022-12-07T12:02:01;11.05;;;5.38;;
21034;SDS011;10676;50.848;3.272;2022-12-07T12:05:05;7.28;;;6.80;;
21034;SDS011;10676;50.848;3.272;2022-12-07T12:07:37;8.20;;;6.45;;
21034;SDS011;10676;50.848;3.272;2022-12-07T12:10:06;9.45;;;7.50;;
21034;SDS011;10676;50.848;3.272;2022-12-07T12:21:14;8.88;;;8.25;;
21034;SDS011;10676;50.848;3.272;2022-12-07T12:23:46;10.05;;;9.15;;
21034;SDS011;10676;50.848;3.272;2022-12-07T12:26:20;11.13;;;9.68;;
21034;SDS011;10676;50.848;3.272;2022-12-07T12:33:49;9.93;;;7.50;;
21034;SDS011;10676;50.848;3.272;2022-12-07T12:38:51;7.70;;;7.05;;
21034;SDS011;10676;50.848;3.272;2022-12-07T12:46:57;9.05;;;7.53;;
21034;SDS011;10676;50.848;3.272;2022-12-07T12:53:21;8.57;;;7.88;;
21034;SDS011;10676;50.848;3.272;2022-12-07T12:55:49;8.88;;;7.82;;
21034;SDS011;10676;50.848;3.272;2022-12-07T12:58:33;8.95;;;8.00;;
21034;SDS011;10676;50.848;3.272;2022-12-07T13:03:53;8.25;;;6.20;;
21034;SDS011;10676;50.848;3.272;2022-12-07T13:06:31;6.80;;;6.13;;
21034;SDS011;10676;50.848;3.272;2022-12-07T13:09:02;7.22;;;6.53;;
21034;SDS011;10676;50.848;3.272;2022-12-07T13:17:05;6.75;;;6.05;;
21034;SDS011;10676;50.848;3.272;2022-12-07T13:19:55;8.23;;;6.18;;
21034;SDS011;10676;50.848;3.272;2022-12-07T13:30:47;10.88;;;6.32;;
21034;SDS011;10676;50.848;3.272;2022-12-07T13:33:34;7.93;;;6.32;;
21034;SDS011;10676;50.848;3.272;2022-12-07T13:36:00;7.68;;;6.32;;
21034;SDS011;10676;50.848;3.272;2022-12-07T13:38:27;6.93;;;5.78;;
21034;SDS011;10676;50.848;3.272;2022-12-07T13:41:02;7.22;;;5.93;;
21034;SDS011;10676;50.848;3.272;2022-12-07T13:43:46;9.70;;;6.63;;
21034;SDS011;10676;50.848;3.272;2022-12-07T13:46:19;9.63;;;7.32;;
21034;SDS011;10676;50.848;3.272;2022-12-07T13:48:51;7.10;;;6.22;;
21034;SDS011;10676;50.848;3.272;2022-12-07T13:51:21;7.78;;;6.65;;
21034;SDS011;10676;50.848;3.272;2022-12-07T13:54:01;6.60;;;5.85;;
21034;SDS011;10676;50.848;3.272;2022-12-07T13:56:34;7.30;;;6.43;;
21034;SDS011;10676;50.848;3.272;2022-12-07T13:59:00;7.90;;;6.93;;
21034;SDS011;10676;50.848;3.272;2022-12-07T14:01:26;7.95;;;7.00;;
21034;SDS011;10676;50.848;3.272;2022-12-07T14:03:53;8.65;;;7.97;;
21034;SDS011;10676;50.848;3.272;2022-12-07T14:06:25;12.30;;;8.70;;
21034;SDS011;10676;50.848;3.272;2022-12-07T14:09:06;11.82;;;10.63;;
21034;SDS011;10676;50.848;3.272;2022-12-07T14:11:32;9.68;;;7.95;;
21034;SDS011;10676;50.848;3.272;2022-12-07T14:13:59;7.47;;;6.75;;
21034;SDS011;10676;50.848;3.272;2022-12-07T14:16:31;15.18;;;11.98;;
21034;SDS011;10676;50.848;3.272;2022-12-07T14:19:00;16.10;;;14.60;;
21034;SDS011;10676;50.848;3.272;2022-12-07T14:21:29;43.60;;;29.52;;
21034;SDS011;10676;50.848;3.272;2022-12-07T14:24:14;11.90;;;10.77;;
21034;SDS011;10676;50.848;3.272;2022-12-07T14:26:45;9.82;;;9.23;;
21034;SDS011;10676;50.848;3.272;2022-12-07T14:31:55;10.73;;;9.90;;
21034;SDS011;10676;50.848;3.272;2022-12-07T14:34:22;8.38;;;7.63;;
21034;SDS011;10676;50.848;3.272;2022-12-07T14:36:48;8.20;;;7.63;;
21034;SDS011;10676;50.848;3.272;2022-12-07T14:39:14;9.45;;;8.85;;
21034;SDS011;10676;50.848;3.272;2022-12-07T14:41:40;8.55;;;7.70;;
21034;SDS011;10676;50.848;3.272;2022-12-07T14:44:18;7.35;;;6.82;;
21034;SDS011;10676;50.848;3.272;2022-12-07T14:46:48;8.60;;;6.20;;
21034;SDS011;10676;50.848;3.272;2022-12-07T14:49:17;8.25;;;5.40;;
21034;SDS011;10676;50.848;3.272;2022-12-07T14:51:44;6.40;;;5.90;;
21034;SDS011;10676;50.848;3.272;2022-12-07T14:54:14;5.47;;;5.07;;
21034;SDS011;10676;50.848;3.272;2022-12-07T14:56:44;7.82;;;6.18;;
21034;SDS011;10676;50.848;3.272;2022-12-07T14:59:11;7.93;;;6.43;;
21034;SDS011;10676;50.848;3.272;2022-12-07T15:01:37;8.32;;;6.28;;
21034;SDS011;10676;50.848;3.272;2022-12-07T15:04:03;9.13;;;6.55;;
21034;SDS011;10676;50.848;3.272;2022-12-07T15:06:30;10.25;;;5.72;;
21034;SDS011;10676;50.848;3.272;2022-12-07T15:08:56;7.43;;;6.35;;
21034;SDS011;10676;50.848;3.272;2022-12-07T15:11:22;11.80;;;7.75;;
21034;SDS011;10676;50.848;3.272;2022-12-07T15:13:48;9.13;;;7.15;;
21034;SDS011;10676;50.848;3.272;2022-12-07T15:16:35;9.73;;;8.77;;
21034;SDS011;10676;50.848;3.272;2022-12-07T15:19:04;10.80;;;7.40;;
21034;SDS011;10676;50.848;3.272;2022-12-07T15:21:30;12.68;;;7.03;;
21034;SDS011;10676;50.848;3.272;2022-12-07T15:23:56;11.60;;;8.82;;
21034;SDS011;10676;50.848;3.272;2022-12-07T15:26:22;10.02;;;9.02;;
21034;SDS011;10676;50.848;3.272;2022-12-07T15:28:47;8.57;;;7.67;;
21034;SDS011;10676;50.848;3.272;2022-12-07T15:31:17;7.13;;;6.53;;
21034;SDS011;10676;50.848;3.272;2022-12-07T15:33:43;5.93;;;5.53;;
21034;SDS011;10676;50.848;3.272;2022-12-07T15:36:12;8.27;;;6.75;;
21034;SDS011;10676;50.848;3.272;2022-12-07T15:38:45;8.50;;;7.87;;
21034;SDS011;10676;50.848;3.272;2022-12-07T15:41:11;7.27;;;6.53;;
21034;SDS011;10676;50.848;3.272;2022-12-07T15:43:36;7.10;;;6.70;;
21034;SDS011;10676;50.848;3.272;2022-12-07T15:46:20;7.17;;;6.63;;
21034;SDS011;10676;50.848;3.272;2022-12-07T15:48:46;6.80;;;6.07;;
21034;SDS011;10676;50.848;3.272;2022-12-07T15:51:12;6.30;;;5.77;;
21034;SDS011;10676;50.848;3.272;2022-12-07T15:53:37;7.57;;;6.20;;
21034;SDS011;10676;50.848;3.272;2022-12-07T15:56:07;8.10;;;5.43;;
21034;SDS011;10676;50.848;3.272;2022-12-07T15:58:33;7.20;;;6.33;;
21034;SDS011;10676;50.848;3.272;2022-12-07T16:00:59;7.50;;;6.87;;
21034;SDS011;10676;50.848;3.272;2022-12-07T16:03:26;13.90;;;8.50;;
21034;SDS011;10676;50.848;3.272;2022-12-07T16:05:52;9.50;;;8.40;;
21034;SDS011;10676;50.848;3.272;2022-12-07T16:08:18;35.03;;;22.03;;
21034;SDS011;10676;50.848;3.272;2022-12-07T16:10:44;11.40;;;8.97;;
21034;SDS011;10676;50.848;3.272;2022-12-07T16:13:10;11.57;;;10.43;;
21034;SDS011;10676;50.848;3.272;2022-12-07T16:15:40;14.93;;;10.23;;
21034;SDS011;10676;50.848;3.272;2022-12-07T16:18:06;10.83;;;9.17;;
21034;SDS011;10676;50.848;3.272;2022-12-07T16:20:32;18.00;;;12.77;;
21034;SDS011;10676;50.848;3.272;2022-12-07T16:22:58;14.53;;;8.87;;
21034;SDS011;10676;50.848;3.272;2022-12-07T16:25:23;12.53;;;9.40;;
21034;SDS011;10676;50.848;3.272;2022-12-07T16:27:50;14.60;;;8.63;;
21034;SDS011;10676;50.848;3.272;2022-12-07T16:30:17;20.73;;;11.00;;
21034;SDS011;10676;50.848;3.272;2022-12-07T16:32:43;15.73;;;10.10;;
21034;SDS011;10676;50.848;3.272;2022-12-07T16:35:09;13.53;;;11.00;;
21034;SDS011;10676;50.848;3.272;2022-12-07T16:37:35;17.20;;;10.40;;
21034;SDS011;10676;50.848;3.272;2022-12-07T16:40:00;20.23;;;8.40;;
21034;SDS011;10676;50.848;3.272;2022-12-07T16:42:26;13.88;;;9.25;;
21034;SDS011;10676;50.848;3.272;2022-12-07T16:44:56;14.57;;;9.70;;
21034;SDS011;10676;50.848;3.272;2022-12-07T16:47:31;15.93;;;9.00;;
21034;SDS011;10676;50.848;3.272;2022-12-07T16:49:56;13.93;;;9.15;;
21034;SDS011;10676;50.848;3.272;2022-12-07T16:52:22;11.35;;;8.23;;
21034;SDS011;10676;50.848;3.272;2022-12-07T16:54:48;17.25;;;8.07;;
21034;SDS011;10676;50.848;3.272;2022-12-07T16:57:14;17.63;;;8.87;;
21034;SDS011;10676;50.848;3.272;2022-12-07T16:59:40;18.83;;;8.50;;
21034;SDS011;10676;50.848;3.272;2022-12-07T17:02:06;13.60;;;8.35;;
21034;SDS011;10676;50.848;3.272;2022-12-07T17:04:33;9.63;;;8.13;;
21034;SDS011;10676;50.848;3.272;2022-12-07T17:06:59;14.67;;;8.10;;
21034;SDS011;10676;50.848;3.272;2022-12-07T17:09:25;16.63;;;10.68;;
21034;SDS011;10676;50.848;3.272;2022-12-07T17:11:51;15.23;;;10.63;;